sensor_id;sensor_type;location;lat;lon;timestamp;pressure;altitude;pressure_sealevel;temperature;humidity
66385;BME280;53426;55.872;37.462;2023-03-20T00:02:18;99741.69;;;-0.08;60.68
66385;BME280;53426;55.872;37.462;2023-03-20T00:04:44;99708.34;;;-0.22;60.57
66385;BME280;53426;55.872;37.462;2023-03-20T00:07:10;99735.53;;;-0.06;60.14
66385;BME280;53426;55.872;37.462;2023-03-20T00:09:37;99743.25;;;-0.04;60.52
66385;BME280;53426;55.872;37.462;2023-03-20T00:12:03;99733.94;;;-0.10;60.33
66385;BME280;53426;55.872;37.462;2023-03-20T00:14:30;99732.19;;;-0.09;60.36
66385;BME280;53426;55.872;37.462;2023-03-20T00:16:56;99727.81;;;-0.09;60.72
66385;BME280;53426;55.872;37.462;2023-03-20T00:19:22;99737.38;;;-0.09;60.75
66385;BME280;53426;55.872;37.462;2023-03-20T00:21:49;99728.81;;;-0.11;60.78
66385;BME280;53426;55.872;37.462;2023-03-20T00:24:16;99729.81;;;-0.15;61.25
66385;BME280;53426;55.872;37.462;2023-03-20T00:26:43;99730.78;;;-0.18;61.31
66385;BME280;53426;55.872;37.462;2023-03-20T00:29:23;99726.31;;;-0.14;61.29
66385;BME280;53426;55.872;37.462;2023-03-20T00:31:53;99730.84;;;-0.19;61.51
66385;BME280;53426;55.872;37.462;2023-03-20T00:34:22;99724.72;;;-0.18;61.06
66385;BME280;53426;55.872;37.462;2023-03-20T00:36:49;99723.03;;;-0.19;61.20
66385;BME280;53426;55.872;37.462;2023-03-20T00:39:15;99719.63;;;-0.21;61.18
66385;BME280;53426;55.872;37.462;2023-03-20T00:41:43;99692.47;;;-0.37;61.42
66385;BME280;53426;55.872;37.462;2023-03-20T00:44:29;99717.00;;;-0.21;61.29
66385;BME280;53426;55.872;37.462;2023-03-20T00:47:02;99713.81;;;-0.28;61.43
66385;BME280;53426;55.872;37.462;2023-03-20T00:49:34;99709.22;;;-0.21;61.36
66385;BME280;53426;55.872;37.462;2023-03-20T00:52:01;99700.88;;;-0.29;61.80
66385;BME280;53426;55.872;37.462;2023-03-20T00:54:28;99713.47;;;-0.19;61.31
66385;BME280;53426;55.872;37.462;2023-03-20T00:59:25;99712.56;;;-0.18;61.42
66385;BME280;53426;55.872;37.462;2023-03-20T01:01:51;99684.00;;;-0.43;61.11
66385;BME280;53426;55.872;37.462;2023-03-20T01:04:19;99681.69;;;-0.50;61.26
66385;BME280;53426;55.872;37.462;2023-03-20T01:06:45;99699.28;;;-0.33;61.06
66385;BME280;53426;55.872;37.462;2023-03-20T01:09:11;99715.63;;;-0.30;60.99
66385;BME280;53426;55.872;37.462;2023-03-20T01:11:38;99714.75;;;-0.30;61.21
66385;BME280;53426;55.872;37.462;2023-03-20T01:14:05;99697.69;;;-0.37;61.52
66385;BME280;53426;55.872;37.462;2023-03-20T01:16:38;99714.75;;;-0.30;61.96
66385;BME280;53426;55.872;37.462;2023-03-20T01:19:04;99700.22;;;-0.36;61.84
66385;BME280;53426;55.872;37.462;2023-03-20T01:21:29;99691.81;;;-0.43;61.76
66385;BME280;53426;55.872;37.462;2023-03-20T01:23:55;99714.22;;;-0.38;62.07
66385;BME280;53426;55.872;37.462;2023-03-20T01:26:38;99705.47;;;-0.37;61.65
66385;BME280;53426;55.872;37.462;2023-03-20T01:29:22;99705.47;;;-0.37;61.75
66385;BME280;53426;55.872;37.462;2023-03-20T01:31:49;99703.00;;;-0.40;61.94
66385;BME280;53426;55.872;37.462;2023-03-20T01:34:16;99692.78;;;-0.45;62.10
66385;BME280;53426;55.872;37.462;2023-03-20T01:36:53;99695.25;;;-0.42;61.72
66385;BME280;53426;55.872;37.462;2023-03-20T01:39:21;99676.72;;;-0.56;61.74
66385;BME280;53426;55.872;37.462;2023-03-20T01:41:50;99691.81;;;-0.43;62.05
66385;BME280;53426;55.872;37.462;2023-03-20T01:44:31;99663.75;;;-0.58;62.20
66385;BME280;53426;55.872;37.462;2023-03-20T01:46:59;99667.16;;;-0.56;62.18
66385;BME280;53426;55.872;37.462;2023-03-20T01:51:55;99677.22;;;-0.47;61.56
66385;BME280;53426;55.872;37.462;2023-03-20T01:54:26;99662.88;;;-0.57;61.59
66385;BME280;53426;55.872;37.462;2023-03-20T01:57:13;99687.50;;;-0.44;61.27
66385;BME280;53426;55.872;37.462;2023-03-20T01:59:59;99672.69;;;-0.42;60.89
66385;BME280;53426;55.872;37.462;2023-03-20T02:02:45;99674.56;;;-0.45;61.35
66385;BME280;53426;55.872;37.462;2023-03-20T02:05:20;99682.47;;;-0.48;61.55
66385;BME280;53426;55.872;37.462;2023-03-20T02:08:38;99665.47;;;-0.57;61.60
66385;BME280;53426;55.872;37.462;2023-03-20T02:10:46;99674.97;;;-0.56;61.59
66385;BME280;53426;55.872;37.462;2023-03-20T02:13:23;99677.63;;;-0.57;61.60
66385;BME280;53426;55.872;37.462;2023-03-20T02:16:10;99674.84;;;-0.53;60.82
66385;BME280;53426;55.872;37.462;2023-03-20T02:18:57;99644.22;;;-0.68;60.97
66385;BME280;53426;55.872;37.462;2023-03-20T02:36:04;99656.69;;;-0.54;61.24
66385;BME280;53426;55.872;37.462;2023-03-20T02:41:48;99646.13;;;-0.50;61.10
66385;BME280;53426;55.872;37.462;2023-03-20T02:46:47;99658.97;;;-0.45;60.71
66385;BME280;53426;55.872;37.462;2023-03-20T02:49:51;99633.19;;;-0.51;60.82
66385;BME280;53426;55.872;37.462;2023-03-20T02:52:43;99649.25;;;-0.40;61.21
66385;BME280;53426;55.872;37.462;2023-03-20T03:00:26;99646.59;;;-0.38;60.39
66385;BME280;53426;55.872;37.462;2023-03-20T03:03:18;99641.25;;;-0.35;59.77
66385;BME280;53426;55.872;37.462;2023-03-20T03:08:18;99635.69;;;-0.26;59.35
66385;BME280;53426;55.872;37.462;2023-03-20T03:10:56;99621.09;;;-0.30;59.54
66385;BME280;53426;55.872;37.462;2023-03-20T03:13:28;99627.41;;;-0.14;59.26
66385;BME280;53426;55.872;37.462;2023-03-20T03:16:00;99611.81;;;-0.14;58.23
66385;BME280;53426;55.872;37.462;2023-03-20T03:18:31;99613.59;;;-0.16;57.69
66385;BME280;53426;55.872;37.462;2023-03-20T03:21:01;99601.94;;;-0.28;57.77
66385;BME280;53426;55.872;37.462;2023-03-20T03:23:32;99613.69;;;-0.18;57.09
66385;BME280;53426;55.872;37.462;2023-03-20T03:26:01;99629.41;;;0.01;57.58
66385;BME280;53426;55.872;37.462;2023-03-20T03:28:41;99618.94;;;0.03;57.35
66385;BME280;53426;55.872;37.462;2023-03-20T03:31:12;99627.31;;;0.11;57.61
66385;BME280;53426;55.872;37.462;2023-03-20T03:33:41;99631.41;;;0.16;57.49
66385;BME280;53426;55.872;37.462;2023-03-20T03:41:35;99629.16;;;0.29;57.01
66385;BME280;53426;55.872;37.462;2023-03-20T03:44:28;99626.34;;;0.33;56.87
66385;BME280;53426;55.872;37.462;2023-03-20T03:47:01;99610.16;;;0.27;56.89
66385;BME280;53426;55.872;37.462;2023-03-20T03:49:36;99618.72;;;0.29;56.27
66385;BME280;53426;55.872;37.462;2023-03-20T03:52:09;99611.78;;;0.29;56.58
66385;BME280;53426;55.872;37.462;2023-03-20T03:54:44;99577.03;;;0.09;56.12
66385;BME280;53426;55.872;37.462;2023-03-20T03:57:33;99585.47;;;0.15;55.81
66385;BME280;53426;55.872;37.462;2023-03-20T04:00:05;99611.91;;;0.26;55.68
66385;BME280;53426;55.872;37.462;2023-03-20T04:02:40;99611.78;;;0.29;55.32
66385;BME280;53426;55.872;37.462;2023-03-20T04:05:08;99613.56;;;0.27;55.63
66385;BME280;53426;55.872;37.462;2023-03-20T04:07:34;99610.97;;;0.27;54.71
66385;BME280;53426;55.872;37.462;2023-03-20T04:10:01;99603.84;;;0.32;54.22
66385;BME280;53426;55.872;37.462;2023-03-20T04:12:35;99600.19;;;0.36;54.42
66385;BME280;53426;55.872;37.462;2023-03-20T04:15:08;99597.53;;;0.38;53.74
66385;BME280;53426;55.872;37.462;2023-03-20T04:17:34;99589.78;;;0.36;53.42
66385;BME280;53426;55.872;37.462;2023-03-20T04:20:01;99593.03;;;0.41;53.04
66385;BME280;53426;55.872;37.462;2023-03-20T04:22:28;99586.66;;;0.49;52.21
66385;BME280;53426;55.872;37.462;2023-03-20T04:24:58;99583.88;;;0.53;51.68
66385;BME280;53426;55.872;37.462;2023-03-20T04:27:26;99587.81;;;0.62;51.30
66385;BME280;53426;55.872;37.462;2023-03-20T04:29:52;99579.25;;;0.60;50.66
66385;BME280;53426;55.872;37.462;2023-03-20T04:32:46;99569.00;;;0.75;50.35
66385;BME280;53426;55.872;37.462;2023-03-20T04:35:28;99578.16;;;0.84;49.53
66385;BME280;53426;55.872;37.462;2023-03-20T04:37:57;99554.47;;;0.70;48.71
66385;BME280;53426;55.872;37.462;2023-03-20T04:40:24;99571.72;;;0.93;48.33
66385;BME280;53426;55.872;37.462;2023-03-20T04:42:51;99568.75;;;1.00;48.25
66385;BME280;53426;55.872;37.462;2023-03-20T04:45:17;99560.88;;;1.02;47.93
66385;BME280;53426;55.872;37.462;2023-03-20T04:47:43;99563.69;;;1.16;48.06
66385;BME280;53426;55.872;37.462;2023-03-20T04:50:10;99557.09;;;1.09;48.04
66385;BME280;53426;55.872;37.462;2023-03-20T04:52:39;99585.50;;;1.34;48.21
66385;BME280;53426;55.872;37.462;2023-03-20T04:55:05;99568.13;;;1.33;47.89
66385;BME280;53426;55.872;37.462;2023-03-20T04:57:33;99575.06;;;1.34;48.16
66385;BME280;53426;55.872;37.462;2023-03-20T05:00:01;99580.00;;;1.40;47.93
66385;BME280;53426;55.872;37.462;2023-03-20T05:02:29;99586.69;;;1.45;47.74
66385;BME280;53426;55.872;37.462;2023-03-20T05:04:57;99587.53;;;1.46;47.73
66385;BME280;53426;55.872;37.462;2023-03-20T05:07:27;99600.31;;;1.52;47.95
66385;BME280;53426;55.872;37.462;2023-03-20T05:09:58;99565.53;;;1.51;47.52
66385;BME280;53426;55.872;37.462;2023-03-20T05:12:30;99599.78;;;1.81;47.63
66385;BME280;53426;55.872;37.462;2023-03-20T05:14:56;99570.13;;;1.82;46.25
66385;BME280;53426;55.872;37.462;2023-03-20T05:17:37;99539.56;;;1.67;45.83
66385;BME280;53426;55.872;37.462;2023-03-20T05:20:17;99588.72;;;2.29;44.84
66385;BME280;53426;55.872;37.462;2023-03-20T05:23:02;99589.25;;;2.53;44.40
66385;BME280;53426;55.872;37.462;2023-03-20T05:25:48;99577.16;;;2.85;43.28
66385;BME280;53426;55.872;37.462;2023-03-20T05:28:33;99590.59;;;3.27;42.41
66385;BME280;53426;55.872;37.462;2023-03-20T05:31:26;99584.09;;;4.13;40.78
66385;BME280;53426;55.872;37.462;2023-03-20T05:34:10;99565.19;;;5.10;38.85
66385;BME280;53426;55.872;37.462;2023-03-20T05:36:49;99580.69;;;6.38;35.80
66385;BME280;53426;55.872;37.462;2023-03-20T05:39:31;99585.81;;;6.00;36.15
66385;BME280;53426;55.872;37.462;2023-03-20T05:42:16;99570.22;;;5.56;35.94
66385;BME280;53426;55.872;37.462;2023-03-20T05:45:05;99590.75;;;5.35;36.79
66385;BME280;53426;55.872;37.462;2023-03-20T05:47:44;99577.34;;;5.54;35.62
66385;BME280;53426;55.872;37.462;2023-03-20T05:50:44;99583.28;;;5.98;35.67
66385;BME280;53426;55.872;37.462;2023-03-20T05:53:32;99587.34;;;6.56;35.01
66385;BME280;53426;55.872;37.462;2023-03-20T05:56:24;99584.53;;;7.09;33.46
66385;BME280;53426;55.872;37.462;2023-03-20T05:59:08;99583.75;;;7.58;32.81
66385;BME280;53426;55.872;37.462;2023-03-20T06:01:51;99566.53;;;7.78;32.03
66385;BME280;53426;55.872;37.462;2023-03-20T06:04:26;99560.38;;;7.90;31.41
66385;BME280;53426;55.872;37.462;2023-03-20T06:07:37;99542.72;;;7.67;32.12
66385;BME280;53426;55.872;37.462;2023-03-20T06:10:10;99582.63;;;7.37;31.70
66385;BME280;53426;55.872;37.462;2023-03-20T06:12:37;99586.00;;;7.75;31.42
66385;BME280;53426;55.872;37.462;2023-03-20T06:15:05;99589.22;;;7.91;30.67
66385;BME280;53426;55.872;37.462;2023-03-20T06:17:48;99571.03;;;7.76;30.68
66385;BME280;53426;55.872;37.462;2023-03-20T06:20:40;99596.63;;;8.23;31.02
66385;BME280;53426;55.872;37.462;2023-03-20T06:23:29;99569.59;;;8.67;30.47
66385;BME280;53426;55.872;37.462;2023-03-20T06:25:55;99584.53;;;9.79;28.83
66385;BME280;53426;55.872;37.462;2023-03-20T06:28:22;99584.19;;;10.16;28.24
66385;BME280;53426;55.872;37.462;2023-03-20T06:30:55;99541.81;;;9.95;28.11
66385;BME280;53426;55.872;37.462;2023-03-20T06:33:29;99580.97;;;10.12;28.27
66385;BME280;53426;55.872;37.462;2023-03-20T06:35:59;99557.34;;;9.88;28.00
66385;BME280;53426;55.872;37.462;2023-03-20T06:38:28;99544.03;;;9.68;27.97
66385;BME280;53426;55.872;37.462;2023-03-20T06:40:56;99567.47;;;9.72;28.08
66385;BME280;53426;55.872;37.462;2023-03-20T06:43:26;99537.25;;;9.32;28.14
66385;BME280;53426;55.872;37.462;2023-03-20T06:45:58;99561.13;;;9.41;29.12
66385;BME280;53426;55.872;37.462;2023-03-20T06:48:28;99549.13;;;9.48;28.47
66385;BME280;53426;55.872;37.462;2023-03-20T06:51:04;99531.59;;;9.47;28.40
66385;BME280;53426;55.872;37.462;2023-03-20T06:58:12;99565.38;;;8.64;29.88
66385;BME280;53426;55.872;37.462;2023-03-20T07:00:44;99544.09;;;8.44;29.95
66385;BME280;53426;55.872;37.462;2023-03-20T07:03:12;99522.00;;;8.33;30.12
66385;BME280;53426;55.872;37.462;2023-03-20T07:05:55;99514.81;;;8.12;30.73
66385;BME280;53426;55.872;37.462;2023-03-20T07:08:22;99542.19;;;7.98;30.68
66385;BME280;53426;55.872;37.462;2023-03-20T07:10:48;99528.78;;;7.77;30.53
66385;BME280;53426;55.872;37.462;2023-03-20T07:13:14;99510.25;;;8.37;30.23
66385;BME280;53426;55.872;37.462;2023-03-20T07:15:42;99548.81;;;8.62;30.21
66385;BME280;53426;55.872;37.462;2023-03-20T07:18:09;99514.44;;;9.08;29.96
66385;BME280;53426;55.872;37.462;2023-03-20T07:20:35;99542.38;;;10.09;28.74
66385;BME280;53426;55.872;37.462;2023-03-20T07:23:04;99534.31;;;10.64;28.11
66385;BME280;53426;55.872;37.462;2023-03-20T07:25:32;99547.56;;;11.05;27.61
66385;BME280;53426;55.872;37.462;2023-03-20T07:27:59;99547.03;;;11.51;26.85
66385;BME280;53426;55.872;37.462;2023-03-20T07:30:27;99542.41;;;11.74;25.59
66385;BME280;53426;55.872;37.462;2023-03-20T07:32:54;99527.09;;;11.97;25.57
66385;BME280;53426;55.872;37.462;2023-03-20T07:35:23;99516.47;;;11.87;25.35
66385;BME280;53426;55.872;37.462;2023-03-20T07:37:53;99512.38;;;12.60;25.30
66385;BME280;53426;55.872;37.462;2023-03-20T07:40:19;99532.03;;;13.52;23.52
66385;BME280;53426;55.872;37.462;2023-03-20T07:42:57;99519.72;;;13.96;22.96
66385;BME280;53426;55.872;37.462;2023-03-20T07:45:43;99520.88;;;14.47;21.76
66385;BME280;53426;55.872;37.462;2023-03-20T07:48:09;99522.41;;;15.01;21.64
66385;BME280;53426;55.872;37.462;2023-03-20T07:50:35;99533.38;;;16.00;20.54
66385;BME280;53426;55.872;37.462;2023-03-20T07:53:01;99517.91;;;16.92;19.80
66385;BME280;53426;55.872;37.462;2023-03-20T07:55:27;99508.34;;;17.22;19.59
66385;BME280;53426;55.872;37.462;2023-03-20T07:57:53;99519.25;;;17.90;18.61
66385;BME280;53426;55.872;37.462;2023-03-20T08:00:19;99510.91;;;18.62;18.07
66385;BME280;53426;55.872;37.462;2023-03-20T08:02:45;99516.47;;;18.98;17.10
66385;BME280;53426;55.872;37.462;2023-03-20T08:05:13;99508.66;;;19.91;16.57
66385;BME280;53426;55.872;37.462;2023-03-20T08:07:39;99503.44;;;19.53;16.49
66385;BME280;53426;55.872;37.462;2023-03-20T08:10:05;99507.06;;;20.32;15.72
66385;BME280;53426;55.872;37.462;2023-03-20T08:12:31;99506.78;;;20.27;15.73
66385;BME280;53426;55.872;37.462;2023-03-20T08:14:56;99497.00;;;20.90;15.15
66385;BME280;53426;55.872;37.462;2023-03-20T08:17:22;99501.22;;;21.34;15.03
66385;BME280;53426;55.872;37.462;2023-03-20T08:19:48;99490.63;;;21.60;14.38
66385;BME280;53426;55.872;37.462;2023-03-20T08:22:14;99499.72;;;21.59;14.73
66385;BME280;53426;55.872;37.462;2023-03-20T08:24:40;99485.59;;;20.88;15.29
66385;BME280;53426;55.872;37.462;2023-03-20T08:27:06;99480.25;;;21.22;14.85
66385;BME280;53426;55.872;37.462;2023-03-20T08:29:44;99496.34;;;21.44;15.48
66385;BME280;53426;55.872;37.462;2023-03-20T08:32:18;99490.16;;;20.02;15.48
66385;BME280;53426;55.872;37.462;2023-03-20T08:34:44;99472.22;;;19.23;16.83
66385;BME280;53426;55.872;37.462;2023-03-20T08:37:10;99478.16;;;19.33;16.28
66385;BME280;53426;55.872;37.462;2023-03-20T08:39:39;99472.38;;;18.77;16.94
66385;BME280;53426;55.872;37.462;2023-03-20T08:42:05;99490.28;;;18.17;17.17
66385;BME280;53426;55.872;37.462;2023-03-20T08:44:37;99490.25;;;17.71;17.51
66385;BME280;53426;55.872;37.462;2023-03-20T08:47:10;99487.50;;;16.93;18.33
66385;BME280;53426;55.872;37.462;2023-03-20T08:49:37;99468.84;;;16.69;19.04
66385;BME280;53426;55.872;37.462;2023-03-20T08:52:03;99479.09;;;17.12;18.78
66385;BME280;53426;55.872;37.462;2023-03-20T08:54:29;99474.22;;;18.17;18.53
66385;BME280;53426;55.872;37.462;2023-03-20T08:56:55;99474.72;;;17.67;18.21
66385;BME280;53426;55.872;37.462;2023-03-20T08:59:22;99468.84;;;17.71;18.02
66385;BME280;53426;55.872;37.462;2023-03-20T09:01:48;99476.19;;;18.00;17.95
66385;BME280;53426;55.872;37.462;2023-03-20T09:04:14;99473.75;;;18.13;17.99
66385;BME280;53426;55.872;37.462;2023-03-20T09:06:40;99462.53;;;17.87;18.21
66385;BME280;53426;55.872;37.462;2023-03-20T09:09:06;99462.31;;;17.96;17.68
66385;BME280;53426;55.872;37.462;2023-03-20T09:11:33;99463.31;;;18.18;18.10
66385;BME280;53426;55.872;37.462;2023-03-20T09:13:59;99467.50;;;18.81;17.47
66385;BME280;53426;55.872;37.462;2023-03-20T09:16:25;99458.34;;;19.63;16.92
66385;BME280;53426;55.872;37.462;2023-03-20T09:18:51;99454.69;;;20.50;16.11
66385;BME280;53426;55.872;37.462;2023-03-20T09:21:17;99454.88;;;20.76;15.44
66385;BME280;53426;55.872;37.462;2023-03-20T09:23:43;99455.41;;;21.20;15.26
66385;BME280;53426;55.872;37.462;2023-03-20T09:26:09;99448.16;;;21.21;15.07
66385;BME280;53426;55.872;37.462;2023-03-20T09:28:34;99450.03;;;21.75;14.90
66385;BME280;53426;55.872;37.462;2023-03-20T09:31:00;99443.97;;;21.66;14.56
66385;BME280;53426;55.872;37.462;2023-03-20T09:33:26;99445.19;;;22.37;14.51
66385;BME280;53426;55.872;37.462;2023-03-20T09:35:52;99442.91;;;21.60;14.47
66385;BME280;53426;55.872;37.462;2023-03-20T09:38:18;99435.56;;;20.66;15.05
66385;BME280;53426;55.872;37.462;2023-03-20T09:40:59;99434.00;;;20.78;15.11
66385;BME280;53426;55.872;37.462;2023-03-20T09:54:23;99417.69;;;19.52;15.59
66385;BME280;53426;55.872;37.462;2023-03-20T09:56:51;99410.97;;;18.68;14.94
66385;BME280;53426;55.872;37.462;2023-03-20T09:59:18;99418.31;;;17.91;15.18
66385;BME280;53426;55.872;37.462;2023-03-20T10:01:57;99416.28;;;18.16;15.93
66385;BME280;53426;55.872;37.462;2023-03-20T10:04:27;99400.72;;;18.11;15.40
66385;BME280;53426;55.872;37.462;2023-03-20T10:06:54;99406.25;;;18.32;15.30
66385;BME280;53426;55.872;37.462;2023-03-20T10:09:23;99410.44;;;17.89;15.28
66385;BME280;53426;55.872;37.462;2023-03-20T10:15:13;99386.31;;;17.05;15.92
66385;BME280;53426;55.872;37.462;2023-03-20T10:20:39;99405.63;;;17.85;15.71
66385;BME280;53426;55.872;37.462;2023-03-20T10:23:22;99395.28;;;17.20;15.78
66385;BME280;53426;55.872;37.462;2023-03-20T10:26:23;99386.25;;;18.72;15.28
66385;BME280;53426;55.872;37.462;2023-03-20T10:40:50;99383.31;;;17.70;14.97
66385;BME280;53426;55.872;37.462;2023-03-20T10:43:28;99382.00;;;17.66;15.12
66385;BME280;53426;55.872;37.462;2023-03-20T10:46:01;99370.03;;;17.99;14.95
66385;BME280;53426;55.872;37.462;2023-03-20T10:54:03;99370.47;;;18.25;14.64
66385;BME280;53426;55.872;37.462;2023-03-20T10:56:35;99358.72;;;19.29;14.25
66385;BME280;53426;55.872;37.462;2023-03-20T10:59:09;99361.69;;;19.34;14.16
66385;BME280;53426;55.872;37.462;2023-03-20T11:01:38;99356.44;;;18.38;14.91
66385;BME280;53426;55.872;37.462;2023-03-20T11:04:05;99356.00;;;18.49;14.93
66385;BME280;53426;55.872;37.462;2023-03-20T11:06:43;99360.00;;;18.97;14.80
66385;BME280;53426;55.872;37.462;2023-03-20T11:09:22;99358.06;;;18.10;15.20
66385;BME280;53426;55.872;37.462;2023-03-20T11:11:51;99353.81;;;17.47;15.33
66385;BME280;53426;55.872;37.462;2023-03-20T11:14:26;99346.56;;;17.55;15.39
66385;BME280;53426;55.872;37.462;2023-03-20T11:16:55;99351.88;;;17.64;15.34
66385;BME280;53426;55.872;37.462;2023-03-20T11:19:22;99344.06;;;17.54;15.19
66385;BME280;53426;55.872;37.462;2023-03-20T11:24:39;99338.94;;;16.83;16.48
66385;BME280;53426;55.872;37.462;2023-03-20T11:27:17;99342.72;;;16.33;16.63
66385;BME280;53426;55.872;37.462;2023-03-20T11:29:48;99340.22;;;15.50;17.18
66385;BME280;53426;55.872;37.462;2023-03-20T11:32:31;99334.34;;;15.15;18.04
66385;BME280;53426;55.872;37.462;2023-03-20T11:37:42;99328.19;;;14.38;18.32
66385;BME280;53426;55.872;37.462;2023-03-20T11:42:38;99326.69;;;12.39;19.70
66385;BME280;53426;55.872;37.462;2023-03-20T11:45:15;99318.66;;;12.22;20.48
66385;BME280;53426;55.872;37.462;2023-03-20T11:47:42;99311.75;;;11.92;21.16
66385;BME280;53426;55.872;37.462;2023-03-20T11:50:31;99318.63;;;11.56;21.19
66385;BME280;53426;55.872;37.462;2023-03-20T11:53:03;99308.56;;;11.30;21.61
66385;BME280;53426;55.872;37.462;2023-03-20T11:55:55;99308.38;;;11.13;22.55
66385;BME280;53426;55.872;37.462;2023-03-20T12:01:27;99303.03;;;10.34;24.80
66385;BME280;53426;55.872;37.462;2023-03-20T12:06:46;99293.00;;;10.07;24.75
66385;BME280;53426;55.872;37.462;2023-03-20T12:09:30;99296.63;;;10.06;25.38
66385;BME280;53426;55.872;37.462;2023-03-20T12:12:18;99297.09;;;9.91;26.05
66385;BME280;53426;55.872;37.462;2023-03-20T12:17:40;99290.25;;;9.68;26.09
66385;BME280;53426;55.872;37.462;2023-03-20T12:20:28;99283.16;;;9.68;27.07
66385;BME280;53426;55.872;37.462;2023-03-20T12:23:14;99289.53;;;9.65;26.73
66385;BME280;53426;55.872;37.462;2023-03-20T12:26:00;99272.03;;;9.64;27.36
66385;BME280;53426;55.872;37.462;2023-03-20T12:28:46;99265.34;;;9.49;27.63
66385;BME280;53426;55.872;37.462;2023-03-20T12:31:25;99274.63;;;9.44;27.69
66385;BME280;53426;55.872;37.462;2023-03-20T12:33:59;99261.63;;;9.31;28.16
66385;BME280;53426;55.872;37.462;2023-03-20T12:36:35;99263.50;;;9.40;28.40
66385;BME280;53426;55.872;37.462;2023-03-20T12:39:12;99252.03;;;9.30;28.49
66385;BME280;53426;55.872;37.462;2023-03-20T12:42:06;99261.31;;;9.45;28.83
66385;BME280;53426;55.872;37.462;2023-03-20T12:45:18;99254.88;;;9.59;28.17
66385;BME280;53426;55.872;37.462;2023-03-20T12:50:39;99252.63;;;9.54;28.94
66385;BME280;53426;55.872;37.462;2023-03-20T12:56:12;99244.59;;;9.45;29.37
66385;BME280;53426;55.872;37.462;2023-03-20T13:01:53;99226.09;;;9.03;30.20
66385;BME280;53426;55.872;37.462;2023-03-20T13:07:17;99228.91;;;8.91;30.66
66385;BME280;53426;55.872;37.462;2023-03-20T13:10:11;99218.03;;;8.73;30.81
66385;BME280;53426;55.872;37.462;2023-03-20T13:12:56;99233.88;;;8.73;30.58
66385;BME280;53426;55.872;37.462;2023-03-20T13:15:51;99226.22;;;8.70;30.79
66385;BME280;53426;55.872;37.462;2023-03-20T13:21:31;99225.84;;;8.74;31.08
66385;BME280;53426;55.872;37.462;2023-03-20T13:24:15;99217.69;;;8.77;30.83
66385;BME280;53426;55.872;37.462;2023-03-20T13:26:54;99197.56;;;8.65;31.01
66385;BME280;53426;55.872;37.462;2023-03-20T13:29:44;99217.03;;;8.85;30.98
66385;BME280;53426;55.872;37.462;2023-03-20T13:32:20;99220.63;;;8.84;31.46
66385;BME280;53426;55.872;37.462;2023-03-20T13:35:22;99216.81;;;8.88;31.38
66385;BME280;53426;55.872;37.462;2023-03-20T13:37:58;99212.47;;;8.87;31.77
66385;BME280;53426;55.872;37.462;2023-03-20T13:40:40;99212.09;;;8.92;31.63
66385;BME280;53426;55.872;37.462;2023-03-20T13:43:25;99210.88;;;8.96;31.57
66385;BME280;53426;55.872;37.462;2023-03-20T13:46:01;99195.69;;;8.88;31.46
66385;BME280;53426;55.872;37.462;2023-03-20T13:48:42;99193.53;;;8.82;31.83
66385;BME280;53426;55.872;37.462;2023-03-20T13:54:01;99202.72;;;8.99;31.81
66385;BME280;53426;55.872;37.462;2023-03-20T14:05:15;99184.66;;;8.83;31.90
66385;BME280;53426;55.872;37.462;2023-03-20T14:07:47;99146.28;;;8.47;31.97
66385;BME280;53426;55.872;37.462;2023-03-20T14:10:36;99142.94;;;8.45;32.32
66385;BME280;53426;55.872;37.462;2023-03-20T14:13:11;99178.75;;;8.59;32.62
66385;BME280;53426;55.872;37.462;2023-03-20T14:16:04;99170.63;;;8.51;32.45
66385;BME280;53426;55.872;37.462;2023-03-20T14:18:35;99154.72;;;8.30;33.34
66385;BME280;53426;55.872;37.462;2023-03-20T14:21:10;99165.50;;;8.38;33.15
66385;BME280;53426;55.872;37.462;2023-03-20T14:23:49;99141.50;;;8.19;33.49
66385;BME280;53426;55.872;37.462;2023-03-20T14:26:24;99159.25;;;8.28;33.76
66385;BME280;53426;55.872;37.462;2023-03-20T14:29:20;99162.13;;;8.25;33.58
66385;BME280;53426;55.872;37.462;2023-03-20T14:31:49;99154.84;;;8.17;34.06
66385;BME280;53426;55.872;37.462;2023-03-20T14:34:20;99162.97;;;8.14;34.71
66385;BME280;53426;55.872;37.462;2023-03-20T14:37:02;99158.66;;;8.13;34.07
66385;BME280;53426;55.872;37.462;2023-03-20T14:45:13;99149.94;;;8.13;35.15
66385;BME280;53426;55.872;37.462;2023-03-20T14:50:40;99146.09;;;8.17;35.37
66385;BME280;53426;55.872;37.462;2023-03-20T15:01:24;99147.31;;;8.02;35.44
66385;BME280;53426;55.872;37.462;2023-03-20T15:04:14;99149.22;;;7.99;35.53
66385;BME280;53426;55.872;37.462;2023-03-20T15:07:09;99140.50;;;7.88;35.81
66385;BME280;53426;55.872;37.462;2023-03-20T15:10:22;99083.28;;;7.45;35.95
66385;BME280;53426;55.872;37.462;2023-03-20T15:12:50;99138.72;;;7.77;36.29
66385;BME280;53426;55.872;37.462;2023-03-20T15:17:50;99139.78;;;7.75;36.68
66385;BME280;53426;55.872;37.462;2023-03-20T15:20:22;99124.59;;;7.67;36.45
66385;BME280;53426;55.872;37.462;2023-03-20T15:22:51;99125.53;;;7.66;36.97
66385;BME280;53426;55.872;37.462;2023-03-20T15:25:19;99106.38;;;7.53;37.38
66385;BME280;53426;55.872;37.462;2023-03-20T15:27:46;99111.16;;;7.59;38.08
66385;BME280;53426;55.872;37.462;2023-03-20T15:30:17;99133.91;;;7.71;38.36
66385;BME280;53426;55.872;37.462;2023-03-20T15:32:45;99122.53;;;7.60;38.26
66385;BME280;53426;55.872;37.462;2023-03-20T15:35:13;99131.28;;;7.60;39.04
66385;BME280;53426;55.872;37.462;2023-03-20T15:37:43;99137.28;;;7.51;39.44
66385;BME280;53426;55.872;37.462;2023-03-20T15:40:31;99143.97;;;7.44;39.95
66385;BME280;53426;55.872;37.462;2023-03-20T15:43:09;99130.28;;;7.17;41.43
66385;BME280;53426;55.872;37.462;2023-03-20T15:45:39;99144.31;;;7.17;42.20
66385;BME280;53426;55.872;37.462;2023-03-20T15:48:11;99084.63;;;6.71;42.54
66385;BME280;53426;55.872;37.462;2023-03-20T15:50:39;99146.31;;;7.02;42.76